createdAt,value
2019-04-30T00:01:19.422Z,101689.28
2019-04-30T00:03:59.361Z,101689.12
2019-04-30T00:06:34.374Z,101688.48
2019-04-30T00:09:01.378Z,101688.24
2019-04-30T00:11:32.792Z,101683.32
2019-04-30T00:14:05.510Z,101686.94
2019-04-30T00:16:39.810Z,101676.44
2019-04-30T00:19:10.725Z,101679.64
2019-04-30T00:21:41.414Z,101676.47
2019-04-30T00:24:12.384Z,101667.59
2019-04-30T00:26:45.043Z,101670.28
2019-04-30T00:29:19.234Z,101673.90
2019-04-30T00:31:48.867Z,101675.50
2019-04-30T00:34:19.844Z,101675.20
2019-04-30T00:36:50.727Z,101669.48
2019-04-30T00:39:21.789Z,101665.77
2019-04-30T00:41:52.773Z,101670.52
2019-04-30T00:44:24.886Z,101666.79
2019-04-30T00:47:00.575Z,101665.78
2019-04-30T00:49:29.948Z,101659.36
2019-04-30T00:52:00.827Z,101659.09
2019-04-30T00:54:31.851Z,101661.75
2019-04-30T00:57:04.511Z,101661.09
2019-04-30T00:59:35.318Z,101654.69
2019-04-30T01:02:19.977Z,101655.04
2019-04-30T01:04:50.477Z,101648.57
2019-04-30T01:07:21.377Z,101649.03
2019-04-30T01:09:52.319Z,101649.11
2019-04-30T01:12:28.939Z,101655.92
2019-04-30T01:14:56.468Z,101652.72
2019-04-30T01:17:29.861Z,101644.03
2019-04-30T01:20:00.843Z,101647.84
2019-04-30T01:22:32.941Z,101641.92
2019-04-30T01:25:08.982Z,101641.35
2019-04-30T01:27:39.491Z,101634.23
2019-04-30T01:30:22.411Z,101634.34
2019-04-30T01:32:56.836Z,101635.38
2019-04-30T01:35:23.747Z,101640.67
2019-04-30T01:37:56.054Z,101637.36
2019-04-30T01:40:28.561Z,101629.65
2019-04-30T01:43:00.094Z,101632.52
2019-04-30T01:45:31.784Z,101630.30
2019-04-30T01:48:08.780Z,101637.02
2019-04-30T01:50:38.647Z,101635.91
2019-04-30T01:53:09.632Z,101632.08
2019-04-30T01:56:06.008Z,101638.77
2019-04-30T01:58:49.072Z,101637.16
2019-04-30T02:01:22.139Z,101637.55
2019-04-30T02:03:53.083Z,101637.88
2019-04-30T02:06:24.265Z,101639.89
2019-04-30T02:08:55.335Z,101637.50
2019-04-30T02:11:26.345Z,101632.84
2019-04-30T02:13:58.974Z,101636.42
2019-04-30T02:16:30.977Z,101639.61
2019-04-30T02:19:02.325Z,101638.69
2019-04-30T02:21:33.742Z,101637.70
2019-04-30T02:24:04.701Z,101643.77
2019-04-30T02:26:35.682Z,101635.85
2019-04-30T02:29:06.591Z,101642.58
2019-04-30T02:31:40.591Z,101640.39
2019-04-30T02:34:25.331Z,101638.55
2019-04-30T02:37:06.334Z,101632.44
2019-04-30T02:39:40.157Z,101636.20
2019-04-30T02:42:13.186Z,101635.75
2019-04-30T02:44:43.678Z,101631.45
2019-04-30T02:47:15.058Z,101635.80
2019-04-30T02:49:46.023Z,101635.84
2019-04-30T02:52:19.564Z,101639.37
2019-04-30T02:54:50.142Z,101637.95
2019-04-30T02:57:23.498Z,101640.25
2019-04-30T03:00:10.040Z,101638.48
2019-04-30T03:02:40.563Z,101634.94
2019-04-30T03:05:13.689Z,101634.17
2019-04-30T03:07:44.240Z,101632.87
2019-04-30T03:10:15.050Z,101631.82
2019-04-30T03:12:45.991Z,101628.63
2019-04-30T03:15:19.506Z,101628.52
2019-04-30T03:18:09.897Z,101632.98
2019-04-30T03:21:09.754Z,101627.06
2019-04-30T03:23:41.137Z,101624.80
2019-04-30T03:26:12.902Z,101619.46
2019-04-30T03:28:49.195Z,101619.61
2019-04-30T03:31:22.587Z,101621.06
2019-04-30T03:33:52.594Z,101624.33
2019-04-30T03:36:23.922Z,101624.83
2019-04-30T03:38:55.018Z,101626.36
2019-04-30T03:41:25.969Z,101622.94
2019-04-30T03:44:13.857Z,101623.36
2019-04-30T03:46:29.957Z,101624.59
2019-04-30T03:49:00.929Z,101625.91
2019-04-30T03:51:31.858Z,101626.36
2019-04-30T03:54:03.039Z,101625.94
2019-04-30T03:56:34.359Z,101633.08
2019-04-30T03:59:06.962Z,101632.02
2019-04-30T04:01:59.385Z,101622.66
2019-04-30T04:04:52.117Z,101628.91
2019-04-30T04:07:46.294Z,101625.45
2019-04-30T04:10:42.545Z,101630.05
2019-04-30T04:13:13.619Z,101629.66
2019-04-30T04:15:44.417Z,101632.94
2019-04-30T04:18:15.442Z,101631.23
2019-04-30T04:20:46.283Z,101631.30
2019-04-30T04:23:19.277Z,101623.98
2019-04-30T04:25:50.029Z,101627.79
2019-04-30T04:28:21.309Z,101628.14
2019-04-30T04:30:52.382Z,101626.16
2019-04-30T04:33:23.618Z,101631.91
2019-04-30T04:35:54.723Z,101632.02
2019-04-30T04:38:25.599Z,101630.77
2019-04-30T04:40:56.591Z,101628.73
2019-04-30T04:43:29.881Z,101637.64
2019-04-30T04:46:00.247Z,101636.47
2019-04-30T04:48:31.253Z,101643.57
2019-04-30T04:51:02.257Z,101644.85
2019-04-30T04:53:33.221Z,101644.09
2019-04-30T04:56:04.072Z,101650.73
2019-04-30T04:58:35.182Z,101652.91
2019-04-30T05:01:09.041Z,101648.19
2019-04-30T05:03:42.203Z,101649.98
2019-04-30T05:06:13.235Z,101656.27
2019-04-30T05:08:44.358Z,101655.78
2019-04-30T05:11:15.583Z,101661.02
2019-04-30T05:13:46.607Z,101668.34
2019-04-30T05:16:19.075Z,101662.88
2019-04-30T05:18:50.473Z,101663.22
2019-04-30T05:21:21.712Z,101666.20
2019-04-30T05:23:52.619Z,101666.95
2019-04-30T05:26:23.684Z,101665.16
2019-04-30T05:28:54.700Z,101665.58
2019-04-30T05:31:25.666Z,101664.07
2019-04-30T05:33:58.585Z,101669.18
2019-04-30T05:36:29.374Z,101669.44
2019-04-30T05:39:00.319Z,101664.75
2019-04-30T05:41:31.400Z,101667.30
2019-04-30T05:44:02.365Z,101673.03
2019-04-30T05:46:33.319Z,101677.80
2019-04-30T05:49:04.130Z,101683.08
2019-04-30T05:51:35.094Z,101684.91
2019-04-30T05:54:09.404Z,101680.71
2019-04-30T05:56:42.721Z,101686.23
2019-04-30T05:59:13.496Z,101681.28
2019-04-30T06:01:48.752Z,101681.28
2019-04-30T06:04:17.011Z,101674.84
2019-04-30T06:06:50.360Z,101680.68
2019-04-30T06:09:38.588Z,101679.52
2019-04-30T06:12:31.934Z,101683.92
2019-04-30T06:15:34.357Z,101676.14
2019-04-30T06:18:11.528Z,101676.53
2019-04-30T06:20:39.148Z,101681.91
2019-04-30T06:23:12.727Z,101673.98
2019-04-30T06:26:09.956Z,101678.60
2019-04-30T06:28:39.057Z,101672.77
2019-04-30T06:31:15.194Z,101671.63
2019-04-30T06:33:49.359Z,101676.47
2019-04-30T06:36:32.154Z,101678.12
2019-04-30T06:39:05.918Z,101680.55
2019-04-30T06:41:36.853Z,101677.47
2019-04-30T06:44:09.597Z,101679.47
2019-04-30T06:46:43.367Z,101679.98
2019-04-30T06:49:14.816Z,101677.86
2019-04-30T06:51:46.156Z,101678.28
2019-04-30T06:54:19.029Z,101682.55
2019-04-30T06:56:49.791Z,101684.08
2019-04-30T06:59:20.825Z,101677.49
2019-04-30T07:01:51.796Z,101687.16
2019-04-30T07:04:22.671Z,101688.84
2019-04-30T07:06:53.764Z,101684.87
2019-04-30T07:09:43.613Z,101685.98
2019-04-30T07:12:25.414Z,101692.54
2019-04-30T07:14:49.475Z,101687.34
2019-04-30T07:17:21.120Z,101692.83
2019-04-30T07:19:56.542Z,101690.14
2019-04-30T07:22:37.582Z,101694.94
2019-04-30T07:24:59.406Z,101700.95
2019-04-30T07:27:32.262Z,101694.56
2019-04-30T07:30:02.664Z,101695.13
2019-04-30T07:32:33.665Z,101699.92
2019-04-30T07:35:05.054Z,101692.88
2019-04-30T07:37:35.975Z,101696.97
2019-04-30T07:40:09.165Z,101697.11
2019-04-30T07:42:44.830Z,101693.17
2019-04-30T07:45:13.393Z,101695.05
2019-04-30T07:47:49.280Z,101694.24
2019-04-30T07:50:21.427Z,101697.05
2019-04-30T07:53:02.577Z,101696.91
2019-04-30T07:55:25.311Z,101701.63
2019-04-30T07:57:56.386Z,101701.33
2019-04-30T08:00:30.971Z,101703.08
2019-04-30T08:03:20.610Z,101698.52
2019-04-30T08:05:53.353Z,101694.44
2019-04-30T08:08:25.628Z,101699.91
2019-04-30T08:10:58.874Z,101698.77
2019-04-30T08:13:32.874Z,101700.63
2019-04-30T08:16:02.308Z,101707.50
2019-04-30T08:18:33.406Z,101700.31
2019-04-30T08:21:04.484Z,101702.95
2019-04-30T08:23:37.238Z,101705.25
2019-04-30T08:26:08.876Z,101702.20
2019-04-30T08:28:39.998Z,101703.15
2019-04-30T08:31:10.939Z,101707.75
2019-04-30T08:33:41.943Z,101703.03
2019-04-30T08:36:12.888Z,101702.78
2019-04-30T08:38:43.860Z,101706.47
2019-04-30T08:41:14.908Z,101699.70
2019-04-30T08:43:49.478Z,101700.07
2019-04-30T08:46:20.209Z,101693.30
2019-04-30T08:48:53.708Z,101700.85
2019-04-30T08:51:23.863Z,101701.00
2019-04-30T08:53:54.670Z,101701.28
2019-04-30T08:56:25.675Z,101699.98
2019-04-30T08:58:56.761Z,101698.17
2019-04-30T09:01:29.404Z,101688.05
2019-04-30T09:04:00.559Z,101682.89
2019-04-30T09:06:31.609Z,101686.02
2019-04-30T09:09:11.051Z,101680.56
2019-04-30T09:11:52.431Z,101675.23
2019-04-30T09:14:15.113Z,101677.09
2019-04-30T09:16:46.453Z,101680.09
2019-04-30T09:19:21.314Z,101676.83
2019-04-30T09:21:52.395Z,101677.83
2019-04-30T09:24:23.388Z,101674.24
2019-04-30T09:26:54.381Z,101676.86
2019-04-30T09:29:25.342Z,101677.77
2019-04-30T09:31:56.292Z,101677.00
2019-04-30T09:34:29.125Z,101667.56
2019-04-30T09:37:00.560Z,101670.69
2019-04-30T09:39:31.500Z,101668.67
2019-04-30T09:42:02.458Z,101663.97
2019-04-30T09:44:33.352Z,101670.70
2019-04-30T09:47:04.259Z,101664.55
2019-04-30T09:49:35.193Z,101664.23
2019-04-30T09:52:06.165Z,101664.44
2019-04-30T09:54:37.115Z,101670.98
2019-04-30T09:57:08.764Z,101664.27
2019-04-30T09:59:40.798Z,101664.35
2019-04-30T10:02:12.075Z,101658.79
2019-04-30T10:04:43.497Z,101653.63
2019-04-30T10:07:14.942Z,101652.83
2019-04-30T10:09:45.976Z,101651.45
2019-04-30T10:12:16.825Z,101654.11
2019-04-30T10:14:49.504Z,101644.06
2019-04-30T10:17:37.606Z,101644.36
2019-04-30T10:20:11.213Z,101639.09
2019-04-30T10:22:42.181Z,101638.97
2019-04-30T10:25:13.232Z,101644.14
2019-04-30T10:27:44.228Z,101632.06
2019-04-30T10:30:15.677Z,101636.21
2019-04-30T10:32:49.930Z,101625.94
2019-04-30T10:35:20.360Z,101626.36
2019-04-30T10:37:51.955Z,101618.23
2019-04-30T10:40:24.341Z,101611.75
2019-04-30T10:42:55.442Z,101608.23
2019-04-30T10:45:28.639Z,101604.63
2019-04-30T10:47:59.351Z,101601.72
2019-04-30T10:50:30.592Z,101598.89
2019-04-30T10:53:01.598Z,101599.39
2019-04-30T10:55:32.583Z,101600.88
2019-04-30T10:58:03.675Z,101596.48
2019-04-30T11:00:40.132Z,101601.12
2019-04-30T11:03:19.855Z,101591.70
2019-04-30T11:05:46.047Z,101589.00
2019-04-30T11:08:17.094Z,101590.52
2019-04-30T11:10:48.172Z,101592.16
2019-04-30T11:13:19.208Z,101577.55
2019-04-30T11:15:50.157Z,101582.91
2019-04-30T11:18:21.593Z,101581.95
2019-04-30T11:20:53.660Z,101567.46
2019-04-30T11:23:26.110Z,101565.62
2019-04-30T11:25:59.752Z,101567.31
2019-04-30T11:28:30.217Z,101562.70
2019-04-30T11:31:19.379Z,101563.81
2019-04-30T11:33:50.767Z,101557.69
2019-04-30T11:36:22.122Z,101556.66
2019-04-30T11:38:54.902Z,101555.86
2019-04-30T11:41:30.814Z,101551.10
2019-04-30T11:43:59.480Z,101553.06
2019-04-30T11:47:25.928Z,101541.08
2019-04-30T11:49:58.522Z,101540.09
2019-04-30T11:52:29.527Z,101536.18
2019-04-30T11:55:00.681Z,101537.23
2019-04-30T11:57:31.685Z,101530.09
2019-04-30T12:00:03.228Z,101533.42
2019-04-30T12:02:39.337Z,101531.00
2019-04-30T12:05:10.732Z,101529.75
2019-04-30T12:08:00.649Z,101526.13
2019-04-30T12:10:45.456Z,101519.62
2019-04-30T12:13:27.008Z,101517.25
2019-04-30T12:15:58.876Z,101513.31
2019-04-30T12:18:30.314Z,101514.45
2019-04-30T12:21:01.399Z,101512.05
2019-04-30T12:23:32.471Z,101519.91
2019-04-30T12:26:03.706Z,101516.77
2019-04-30T12:28:34.872Z,101509.76
2019-04-30T12:31:06.358Z,101518.64
2019-04-30T12:33:37.468Z,101509.88
2019-04-30T12:36:09.026Z,101509.29
2019-04-30T12:38:40.377Z,101504.30
2019-04-30T12:41:11.522Z,101506.19
2019-04-30T12:43:42.607Z,101502.96
2019-04-30T12:46:13.531Z,101501.47
2019-04-30T12:49:10.198Z,101502.50
2019-04-30T12:52:12.611Z,101505.97
2019-04-30T12:54:59.295Z,101493.48
2019-04-30T12:57:34.292Z,101492.56
2019-04-30T13:00:09.639Z,101498.52
2019-04-30T13:02:40.661Z,101491.08
2019-04-30T13:05:11.622Z,101491.69
2019-04-30T13:07:43.007Z,101489.73
2019-04-30T13:10:15.053Z,101492.08
2019-04-30T13:12:47.042Z,101476.64
2019-04-30T13:15:18.499Z,101480.98
2019-04-30T13:17:50.122Z,101471.33
2019-04-30T13:20:23.999Z,101465.73
2019-04-30T13:22:54.191Z,101475.12
2019-04-30T13:25:32.381Z,101472.94
2019-04-30T13:28:06.657Z,101462.86
2019-04-30T13:30:39.596Z,101461.23
2019-04-30T13:33:20.582Z,101459.41
2019-04-30T13:35:51.665Z,101453.80
2019-04-30T13:38:28.029Z,101443.95
2019-04-30T13:41:21.753Z,101446.70
2019-04-30T13:44:03.398Z,101442.45
2019-04-30T13:46:34.416Z,101437.86
2019-04-30T13:49:06.463Z,101432.64
2019-04-30T13:51:37.440Z,101428.30
2019-04-30T13:54:08.457Z,101428.30
2019-04-30T13:56:39.738Z,101421.42
2019-04-30T13:59:11.006Z,101426.05
2019-04-30T14:01:41.954Z,101429.41
2019-04-30T14:04:43.754Z,101420.96
2019-04-30T14:07:40.262Z,101422.20
2019-04-30T14:10:11.870Z,101413.58
2019-04-30T14:12:48.465Z,101411.61
2019-04-30T14:15:19.607Z,101416.23
2019-04-30T14:17:50.600Z,101412.64
2019-04-30T14:20:21.599Z,101407.27
2019-04-30T14:22:52.562Z,101403.29
2019-04-30T14:25:23.500Z,101403.78
2019-04-30T14:27:54.926Z,101407.77
2019-04-30T14:30:26.950Z,101406.37
2019-04-30T14:32:59.327Z,101401.24
2019-04-30T14:35:30.779Z,101401.77
2019-04-30T14:38:05.016Z,101402.61
2019-04-30T14:40:35.335Z,101395.31
2019-04-30T14:43:12.390Z,101404.77
2019-04-30T14:46:05.858Z,101398.42
2019-04-30T14:48:44.142Z,101397.78
2019-04-30T14:51:15.915Z,101395.28
2019-04-30T14:54:05.827Z,101391.44
2019-04-30T14:56:42.590Z,101389.46
2019-04-30T14:59:32.545Z,101392.35
2019-04-30T15:02:13.222Z,101388.21
2019-04-30T15:04:44.169Z,101386.38
2019-04-30T15:07:15.065Z,101385.80
2019-04-30T15:09:46.045Z,101383.02
2019-04-30T15:12:17.020Z,101383.42
2019-04-30T15:14:49.248Z,101378.02
2019-04-30T15:17:20.643Z,101380.17
2019-04-30T15:19:54.410Z,101376.92
2019-04-30T15:22:24.334Z,101372.72
2019-04-30T15:24:55.882Z,101371.01
2019-04-30T15:27:28.854Z,101371.60
2019-04-30T15:29:59.638Z,101370.48
2019-04-30T15:32:31.073Z,101371.08
2019-04-30T15:35:02.726Z,101370.95
2019-04-30T15:37:34.091Z,101370.32
2019-04-30T15:40:08.951Z,101365.58
2019-04-30T15:42:42.884Z,101365.41
2019-04-30T15:45:15.450Z,101368.47
2019-04-30T15:47:46.438Z,101363.91
2019-04-30T15:50:19.137Z,101364.58
2019-04-30T15:52:49.988Z,101360.00
2019-04-30T15:55:20.936Z,101355.19
2019-04-30T15:58:13.710Z,101359.17
2019-04-30T16:00:44.699Z,101357.77
2019-04-30T16:03:20.783Z,101351.11
2019-04-30T16:05:52.995Z,101351.87
2019-04-30T16:08:31.863Z,101357.38
2019-04-30T16:11:21.658Z,101352.64
2019-04-30T16:14:20.729Z,101349.81
2019-04-30T16:17:02.685Z,101348.36
2019-04-30T16:19:33.745Z,101346.61
2019-04-30T16:22:05.007Z,101343.95
2019-04-30T16:24:38.682Z,101344.11
2019-04-30T16:27:09.643Z,101341.98
2019-04-30T16:29:40.831Z,101347.09
2019-04-30T16:32:11.957Z,101348.66
2019-04-30T16:34:43.286Z,101342.80
2019-04-30T16:37:14.261Z,101345.31
2019-04-30T16:39:45.288Z,101343.48
2019-04-30T16:42:16.508Z,101346.94
2019-04-30T16:44:47.528Z,101341.38
2019-04-30T16:47:19.868Z,101342.98
2019-04-30T16:49:51.679Z,101343.94
2019-04-30T16:52:22.734Z,101349.94
2019-04-30T16:54:53.836Z,101339.53
2019-04-30T16:57:24.768Z,101350.10
2019-04-30T16:59:55.738Z,101350.41
2019-04-30T17:02:29.328Z,101342.95
2019-04-30T17:05:19.813Z,101355.28
2019-04-30T17:08:02.324Z,101353.84
2019-04-30T17:10:45.310Z,101351.20
2019-04-30T17:13:23.066Z,101349.66
2019-04-30T17:15:56.934Z,101349.94
2019-04-30T17:18:29.738Z,101355.89
2019-04-30T17:21:00.534Z,101345.43
2019-04-30T17:23:31.468Z,101347.77
2019-04-30T17:26:02.438Z,101356.69
2019-04-30T17:28:33.431Z,101352.52
2019-04-30T17:31:04.473Z,101351.83
2019-04-30T17:33:35.622Z,101349.11
2019-04-30T17:36:08.709Z,101350.47
2019-04-30T17:38:39.956Z,101353.59
2019-04-30T17:41:11.357Z,101357.61
2019-04-30T17:43:42.503Z,101360.70
2019-04-30T17:46:13.551Z,101361.69
2019-04-30T17:48:44.496Z,101371.65
2019-04-30T17:51:15.698Z,101365.03
2019-04-30T17:54:04.479Z,101370.27
2019-04-30T17:56:35.596Z,101371.11
2019-04-30T17:59:06.532Z,101374.70
2019-04-30T18:01:40.098Z,101375.73
2019-04-30T18:04:11.960Z,101369.75
2019-04-30T18:06:44.002Z,101373.26
2019-04-30T18:09:15.277Z,101373.98
2019-04-30T18:11:49.572Z,101372.10
2019-04-30T18:14:22.102Z,101374.73
2019-04-30T18:16:52.962Z,101377.41
2019-04-30T18:19:30.675Z,101376.80
2019-04-30T18:22:06.040Z,101381.70
2019-04-30T18:24:54.852Z,101379.39
2019-04-30T18:27:43.047Z,101377.34
2019-04-30T18:30:04.624Z,101375.40
2019-04-30T18:32:35.663Z,101380.22
2019-04-30T18:35:08.338Z,101376.47
2019-04-30T18:37:39.522Z,101381.41
2019-04-30T18:40:10.810Z,101377.26
2019-04-30T18:42:42.046Z,101377.98
2019-04-30T18:45:13.333Z,101383.33
2019-04-30T18:48:02.457Z,101379.26
2019-04-30T18:50:31.734Z,101383.14
2019-04-30T18:53:05.427Z,101382.45
2019-04-30T18:55:36.327Z,101386.52
2019-04-30T18:58:08.874Z,101387.47
2019-04-30T19:00:44.516Z,101384.39
2019-04-30T19:03:21.132Z,101379.49
2019-04-30T19:06:03.179Z,101383.16
2019-04-30T19:08:44.128Z,101379.76
2019-04-30T19:11:52.379Z,101374.12
2019-04-30T19:14:34.126Z,101382.06
2019-04-30T19:17:30.562Z,101380.67
2019-04-30T19:20:21.519Z,101390.64
2019-04-30T19:23:06.212Z,101386.22
2019-04-30T19:25:43.765Z,101396.36
2019-04-30T19:28:22.571Z,101391.67
2019-04-30T19:31:01.002Z,101391.85
2019-04-30T19:33:33.245Z,101394.19
2019-04-30T19:36:07.014Z,101397.92
2019-04-30T19:38:45.886Z,101396.59
2019-04-30T19:41:28.750Z,101395.38
2019-04-30T19:44:11.111Z,101400.66
2019-04-30T19:46:42.284Z,101400.50
2019-04-30T19:49:19.266Z,101400.50
2019-04-30T19:51:55.911Z,101400.72
2019-04-30T19:54:43.254Z,101409.41
2019-04-30T20:00:32.045Z,101407.72
2019-04-30T20:03:03.268Z,101406.77
2019-04-30T20:05:39.217Z,101405.02
2019-04-30T20:08:12.328Z,101408.80
2019-04-30T20:10:49.903Z,101415.42
2019-04-30T20:13:33.144Z,101414.60
2019-04-30T20:15:55.714Z,101419.02
2019-04-30T20:18:33.817Z,101415.02
2019-04-30T20:21:11.050Z,101414.47
2019-04-30T20:23:57.702Z,101412.40
2019-04-30T20:26:39.718Z,101415.70
2019-04-30T20:29:44.911Z,101413.86
2019-04-30T20:32:20.742Z,101411.19
2019-04-30T20:35:00.537Z,101404.56
2019-04-30T20:37:35.394Z,101401.55
2019-04-30T20:40:14.581Z,101407.45
2019-04-30T20:42:48.651Z,101401.58
2019-04-30T20:45:24.393Z,101402.72
2019-04-30T20:47:56.562Z,101400.36
2019-04-30T20:50:37.822Z,101402.66
2019-04-30T20:53:15.040Z,101401.64
2019-04-30T20:55:59.395Z,101398.91
2019-04-30T20:58:30.444Z,101400.79
2019-04-30T21:01:06.306Z,101390.58
2019-04-30T21:03:33.964Z,101391.58
2019-04-30T21:06:04.925Z,101395.78
2019-04-30T21:08:36.020Z,101398.30
2019-04-30T21:11:07.022Z,101394.77
2019-04-30T21:13:52.597Z,101392.70
2019-04-30T21:16:26.631Z,101394.45
2019-04-30T21:18:56.138Z,101388.65
2019-04-30T21:21:28.758Z,101393.37
2019-04-30T21:24:00.102Z,101391.35
2019-04-30T21:26:36.776Z,101386.89
2019-04-30T21:29:13.154Z,101389.69
2019-04-30T21:32:03.383Z,101389.27
2019-04-30T21:34:49.427Z,101387.05
2019-04-30T21:37:20.824Z,101389.02
2019-04-30T21:39:51.879Z,101387.78
2019-04-30T21:42:22.886Z,101388.72
2019-04-30T21:44:55.733Z,101387.19
2019-04-30T21:47:26.840Z,101386.78
2019-04-30T21:49:57.759Z,101384.81
2019-04-30T21:52:28.880Z,101381.38
2019-04-30T21:54:59.899Z,101386.10
2019-04-30T21:57:30.989Z,101381.64
2019-04-30T22:00:06.319Z,101384.07
2019-04-30T22:02:38.343Z,101382.84
2019-04-30T22:05:09.980Z,101388.78
2019-04-30T22:07:40.891Z,101384.49
2019-04-30T22:10:11.950Z,101386.98
2019-04-30T22:12:42.864Z,101380.44
2019-04-30T22:15:15.208Z,101383.33
2019-04-30T22:17:46.117Z,101388.50
2019-04-30T22:20:18.736Z,101383.98
2019-04-30T22:22:49.867Z,101382.34
2019-04-30T22:25:21.220Z,101377.30
2019-04-30T22:27:52.621Z,101380.33
2019-04-30T22:30:23.675Z,101379.50
2019-04-30T22:32:54.711Z,101382.19
2019-04-30T22:35:51.070Z,101377.82
2019-04-30T22:38:26.137Z,101368.91
2019-04-30T22:40:58.854Z,101372.50
2019-04-30T22:43:29.764Z,101370.95
2019-04-30T22:46:05.530Z,101373.00
2019-04-30T22:48:36.394Z,101374.25
2019-04-30T22:51:07.308Z,101374.48
2019-04-30T22:53:38.261Z,101372.72
2019-04-30T22:56:09.203Z,101374.48
2019-04-30T22:58:40.145Z,101367.70
2019-04-30T23:01:29.586Z,101369.22
2019-04-30T23:04:05.357Z,101366.13
2019-04-30T23:06:36.391Z,101369.45
2019-04-30T23:09:09.143Z,101373.72
2019-04-30T23:11:40.181Z,101375.26
2019-04-30T23:14:11.190Z,101377.28
2019-04-30T23:16:42.170Z,101373.05
2019-04-30T23:19:13.257Z,101381.53
2019-04-30T23:21:44.221Z,101375.65
2019-04-30T23:24:15.172Z,101377.45
2019-04-30T23:26:46.063Z,101363.59
2019-04-30T23:29:17.110Z,101374.06
2019-04-30T23:31:48.144Z,101372.17
2019-04-30T23:34:19.214Z,101370.62
2019-04-30T23:36:50.211Z,101365.24
2019-04-30T23:39:21.960Z,101358.48
2019-04-30T23:41:53.256Z,101363.19
2019-04-30T23:44:26.130Z,101355.66
2019-04-30T23:46:57.420Z,101355.33
2019-04-30T23:49:28.553Z,101354.11
2019-04-30T23:51:59.559Z,101355.58
2019-04-30T23:54:30.400Z,101352.47
2019-04-30T23:57:01.346Z,101348.14
2019-04-30T23:59:32.208Z,101345.70
